sensor_id;sensor_type;location;lat;lon;timestamp;P1;durP1;ratioP1;P2;durP2;ratioP2
55134;SDS011;41031;44.750;11.308;2023-07-20T00:01:19;9.60;;;3.77;;
55134;SDS011;41031;44.750;11.308;2023-07-20T00:03:46;5.97;;;3.40;;
55134;SDS011;41031;44.750;11.308;2023-07-20T00:06:24;9.43;;;5.03;;
55134;SDS011;41031;44.750;11.308;2023-07-20T00:08:54;7.47;;;4.00;;
55134;SDS011;41031;44.750;11.308;2023-07-20T00:11:25;8.17;;;3.67;;
55134;SDS011;41031;44.750;11.308;2023-07-20T00:13:53;15.13;;;4.07;;
55134;SDS011;41031;44.750;11.308;2023-07-20T00:16:20;12.20;;;4.67;;
55134;SDS011;41031;44.750;11.308;2023-07-20T00:18:47;17.33;;;4.63;;
55134;SDS011;41031;44.750;11.308;2023-07-20T00:21:17;9.10;;;4.30;;
55134;SDS011;41031;44.750;11.308;2023-07-20T00:23:44;7.97;;;4.77;;
55134;SDS011;41031;44.750;11.308;2023-07-20T00:26:11;5.43;;;4.20;;
55134;SDS011;41031;44.750;11.308;2023-07-20T00:28:38;16.23;;;5.00;;
55134;SDS011;41031;44.750;11.308;2023-07-20T00:31:05;7.00;;;3.90;;
55134;SDS011;41031;44.750;11.308;2023-07-20T00:33:32;8.53;;;4.83;;
55134;SDS011;41031;44.750;11.308;2023-07-20T00:35:59;7.87;;;4.60;;
55134;SDS011;41031;44.750;11.308;2023-07-20T00:38:26;7.10;;;4.47;;
55134;SDS011;41031;44.750;11.308;2023-07-20T00:40:53;8.37;;;4.93;;
55134;SDS011;41031;44.750;11.308;2023-07-20T00:43:20;7.60;;;4.80;;
55134;SDS011;41031;44.750;11.308;2023-07-20T00:45:47;8.30;;;4.20;;
55134;SDS011;41031;44.750;11.308;2023-07-20T00:48:14;10.77;;;5.53;;
55134;SDS011;41031;44.750;11.308;2023-07-20T00:50:42;10.80;;;5.60;;
55134;SDS011;41031;44.750;11.308;2023-07-20T00:53:09;9.57;;;4.53;;
55134;SDS011;41031;44.750;11.308;2023-07-20T00:55:36;7.40;;;4.27;;
55134;SDS011;41031;44.750;11.308;2023-07-20T00:58:03;8.97;;;5.07;;
55134;SDS011;41031;44.750;11.308;2023-07-20T01:00:31;9.17;;;5.20;;
55134;SDS011;41031;44.750;11.308;2023-07-20T01:02:58;9.30;;;5.37;;
55134;SDS011;41031;44.750;11.308;2023-07-20T01:05:29;8.93;;;4.80;;
55134;SDS011;41031;44.750;11.308;2023-07-20T01:08:17;8.43;;;4.87;;
55134;SDS011;41031;44.750;11.308;2023-07-20T01:10:59;9.80;;;4.83;;
55134;SDS011;41031;44.750;11.308;2023-07-20T01:13:59;7.33;;;4.07;;
55134;SDS011;41031;44.750;11.308;2023-07-20T01:16:27;10.03;;;4.03;;
55134;SDS011;41031;44.750;11.308;2023-07-20T01:18:54;5.97;;;4.20;;
55134;SDS011;41031;44.750;11.308;2023-07-20T01:21:24;12.87;;;4.60;;
55134;SDS011;41031;44.750;11.308;2023-07-20T01:32:31;8.70;;;5.43;;
55134;SDS011;41031;44.750;11.308;2023-07-20T01:34:59;9.00;;;5.00;;
55134;SDS011;41031;44.750;11.308;2023-07-20T01:37:28;11.77;;;5.27;;
55134;SDS011;41031;44.750;11.308;2023-07-20T01:39:58;9.43;;;4.77;;
55134;SDS011;41031;44.750;11.308;2023-07-20T01:42:26;6.37;;;4.77;;
55134;SDS011;41031;44.750;11.308;2023-07-20T01:44:53;11.20;;;5.40;;
55134;SDS011;41031;44.750;11.308;2023-07-20T01:47:23;11.93;;;6.07;;
55134;SDS011;41031;44.750;11.308;2023-07-20T01:49:50;7.87;;;4.67;;
55134;SDS011;41031;44.750;11.308;2023-07-20T01:52:17;8.30;;;5.40;;
55134;SDS011;41031;44.750;11.308;2023-07-20T01:54:44;7.60;;;5.10;;
55134;SDS011;41031;44.750;11.308;2023-07-20T01:57:11;11.17;;;5.60;;
55134;SDS011;41031;44.750;11.308;2023-07-20T01:59:38;11.30;;;6.73;;
55134;SDS011;41031;44.750;11.308;2023-07-20T02:02:06;14.73;;;6.97;;
55134;SDS011;41031;44.750;11.308;2023-07-20T02:04:33;9.40;;;6.23;;
55134;SDS011;41031;44.750;11.308;2023-07-20T02:07:00;8.57;;;6.27;;
55134;SDS011;41031;44.750;11.308;2023-07-20T02:09:27;10.13;;;6.97;;
55134;SDS011;41031;44.750;11.308;2023-07-20T02:11:54;11.27;;;7.27;;
55134;SDS011;41031;44.750;11.308;2023-07-20T02:14:21;11.53;;;7.53;;
55134;SDS011;41031;44.750;11.308;2023-07-20T02:16:49;14.43;;;7.33;;
55134;SDS011;41031;44.750;11.308;2023-07-20T02:19:20;18.73;;;7.90;;
55134;SDS011;41031;44.750;11.308;2023-07-20T02:21:48;16.00;;;8.90;;
55134;SDS011;41031;44.750;11.308;2023-07-20T02:24:15;12.37;;;8.67;;
55134;SDS011;41031;44.750;11.308;2023-07-20T02:26:42;17.30;;;7.93;;
55134;SDS011;41031;44.750;11.308;2023-07-20T02:29:11;14.60;;;8.63;;
55134;SDS011;41031;44.750;11.308;2023-07-20T02:31:40;17.77;;;8.17;;
55134;SDS011;41031;44.750;11.308;2023-07-20T02:34:09;12.03;;;8.43;;
55134;SDS011;41031;44.750;11.308;2023-07-20T02:36:36;12.07;;;8.23;;
55134;SDS011;41031;44.750;11.308;2023-07-20T02:39:03;13.10;;;9.00;;
55134;SDS011;41031;44.750;11.308;2023-07-20T02:41:32;13.27;;;8.67;;
55134;SDS011;41031;44.750;11.308;2023-07-20T02:44:00;14.60;;;8.87;;
55134;SDS011;41031;44.750;11.308;2023-07-20T02:46:27;17.40;;;9.20;;
55134;SDS011;41031;44.750;11.308;2023-07-20T02:48:57;11.97;;;8.07;;
55134;SDS011;41031;44.750;11.308;2023-07-20T02:51:24;16.37;;;9.73;;
55134;SDS011;41031;44.750;11.308;2023-07-20T02:53:51;16.13;;;8.23;;
55134;SDS011;41031;44.750;11.308;2023-07-20T02:56:18;9.33;;;7.77;;
55134;SDS011;41031;44.750;11.308;2023-07-20T02:58:45;18.10;;;9.03;;
55134;SDS011;41031;44.750;11.308;2023-07-20T03:01:12;13.30;;;8.63;;
55134;SDS011;41031;44.750;11.308;2023-07-20T03:03:42;15.03;;;9.33;;
55134;SDS011;41031;44.750;11.308;2023-07-20T03:06:13;15.60;;;8.67;;
55134;SDS011;41031;44.750;11.308;2023-07-20T03:08:42;15.00;;;8.90;;
55134;SDS011;41031;44.750;11.308;2023-07-20T03:11:14;15.53;;;10.13;;
55134;SDS011;41031;44.750;11.308;2023-07-20T03:13:42;15.30;;;9.13;;
55134;SDS011;41031;44.750;11.308;2023-07-20T03:16:13;11.17;;;9.00;;
55134;SDS011;41031;44.750;11.308;2023-07-20T03:18:44;10.43;;;9.17;;
55134;SDS011;41031;44.750;11.308;2023-07-20T03:21:11;13.30;;;9.53;;
55134;SDS011;41031;44.750;11.308;2023-07-20T03:23:39;14.77;;;9.47;;
55134;SDS011;41031;44.750;11.308;2023-07-20T03:26:07;15.63;;;10.37;;
55134;SDS011;41031;44.750;11.308;2023-07-20T03:28:35;17.77;;;9.73;;
55134;SDS011;41031;44.750;11.308;2023-07-20T03:31:02;14.03;;;9.90;;
55134;SDS011;41031;44.750;11.308;2023-07-20T03:33:33;17.03;;;9.97;;
55134;SDS011;41031;44.750;11.308;2023-07-20T03:36:01;14.23;;;9.57;;
55134;SDS011;41031;44.750;11.308;2023-07-20T03:38:29;14.13;;;9.13;;
55134;SDS011;41031;44.750;11.308;2023-07-20T03:40:56;17.20;;;9.57;;
55134;SDS011;41031;44.750;11.308;2023-07-20T03:43:25;14.70;;;9.77;;
55134;SDS011;41031;44.750;11.308;2023-07-20T03:45:53;12.87;;;9.50;;
55134;SDS011;41031;44.750;11.308;2023-07-20T03:48:21;15.10;;;9.73;;
55134;SDS011;41031;44.750;11.308;2023-07-20T03:50:50;13.77;;;8.90;;
55134;SDS011;41031;44.750;11.308;2023-07-20T03:53:18;11.23;;;8.47;;
55134;SDS011;41031;44.750;11.308;2023-07-20T03:55:49;15.93;;;9.37;;
55134;SDS011;41031;44.750;11.308;2023-07-20T03:58:18;17.83;;;8.63;;
55134;SDS011;41031;44.750;11.308;2023-07-20T04:00:50;10.70;;;7.70;;
55134;SDS011;41031;44.750;11.308;2023-07-20T04:03:18;11.77;;;8.17;;
55134;SDS011;41031;44.750;11.308;2023-07-20T04:05:46;12.07;;;7.30;;
55134;SDS011;41031;44.750;11.308;2023-07-20T04:08:13;13.70;;;7.40;;
55134;SDS011;41031;44.750;11.308;2023-07-20T04:10:43;13.47;;;7.57;;
55134;SDS011;41031;44.750;11.308;2023-07-20T04:13:10;13.13;;;7.40;;
55134;SDS011;41031;44.750;11.308;2023-07-20T04:15:38;11.33;;;7.23;;
55134;SDS011;41031;44.750;11.308;2023-07-20T04:18:05;12.13;;;7.50;;
55134;SDS011;41031;44.750;11.308;2023-07-20T04:20:32;11.70;;;7.63;;
55134;SDS011;41031;44.750;11.308;2023-07-20T04:22:59;12.63;;;7.07;;
55134;SDS011;41031;44.750;11.308;2023-07-20T04:25:28;15.40;;;6.73;;
55134;SDS011;41031;44.750;11.308;2023-07-20T04:27:55;11.50;;;6.90;;
55134;SDS011;41031;44.750;11.308;2023-07-20T04:30:22;11.50;;;7.10;;
55134;SDS011;41031;44.750;11.308;2023-07-20T04:32:49;12.53;;;6.03;;
55134;SDS011;41031;44.750;11.308;2023-07-20T04:38:12;11.10;;;7.30;;
55134;SDS011;41031;44.750;11.308;2023-07-20T04:40:39;12.77;;;7.60;;
55134;SDS011;41031;44.750;11.308;2023-07-20T04:43:06;14.23;;;7.50;;
55134;SDS011;41031;44.750;11.308;2023-07-20T04:45:33;12.63;;;6.83;;
55134;SDS011;41031;44.750;11.308;2023-07-20T04:48:00;11.23;;;6.93;;
55134;SDS011;41031;44.750;11.308;2023-07-20T04:50:30;11.50;;;7.80;;
55134;SDS011;41031;44.750;11.308;2023-07-20T04:52:57;14.40;;;7.23;;
55134;SDS011;41031;44.750;11.308;2023-07-20T04:55:24;12.30;;;8.07;;
55134;SDS011;41031;44.750;11.308;2023-07-20T04:57:52;10.17;;;6.93;;
55134;SDS011;41031;44.750;11.308;2023-07-20T05:00:20;10.23;;;6.30;;
55134;SDS011;41031;44.750;11.308;2023-07-20T05:02:49;10.13;;;7.87;;
55134;SDS011;41031;44.750;11.308;2023-07-20T05:05:17;9.83;;;5.97;;
55134;SDS011;41031;44.750;11.308;2023-07-20T05:07:47;11.67;;;7.50;;
55134;SDS011;41031;44.750;11.308;2023-07-20T05:10:14;13.10;;;6.80;;
55134;SDS011;41031;44.750;11.308;2023-07-20T05:12:41;10.40;;;7.30;;
55134;SDS011;41031;44.750;11.308;2023-07-20T05:15:08;12.13;;;7.37;;
55134;SDS011;41031;44.750;11.308;2023-07-20T05:17:38;16.20;;;7.80;;
55134;SDS011;41031;44.750;11.308;2023-07-20T05:20:06;10.63;;;8.13;;
55134;SDS011;41031;44.750;11.308;2023-07-20T05:22:36;17.40;;;7.83;;
55134;SDS011;41031;44.750;11.308;2023-07-20T05:25:06;11.00;;;7.13;;
55134;SDS011;41031;44.750;11.308;2023-07-20T05:27:35;11.73;;;7.30;;
55134;SDS011;41031;44.750;11.308;2023-07-20T05:30:03;12.40;;;7.33;;
55134;SDS011;41031;44.750;11.308;2023-07-20T05:32:31;12.03;;;7.40;;
55134;SDS011;41031;44.750;11.308;2023-07-20T05:34:58;11.70;;;7.80;;
55134;SDS011;41031;44.750;11.308;2023-07-20T05:37:25;11.83;;;7.10;;
55134;SDS011;41031;44.750;11.308;2023-07-20T05:39:52;10.73;;;6.60;;
55134;SDS011;41031;44.750;11.308;2023-07-20T05:42:19;10.10;;;7.10;;
55134;SDS011;41031;44.750;11.308;2023-07-20T05:44:46;10.00;;;6.33;;
55134;SDS011;41031;44.750;11.308;2023-07-20T05:47:14;9.87;;;6.60;;
55134;SDS011;41031;44.750;11.308;2023-07-20T05:49:41;10.50;;;6.00;;
55134;SDS011;41031;44.750;11.308;2023-07-20T05:52:08;10.50;;;5.90;;
55134;SDS011;41031;44.750;11.308;2023-07-20T05:54:35;12.27;;;6.13;;
55134;SDS011;41031;44.750;11.308;2023-07-20T05:57:02;7.80;;;5.63;;
55134;SDS011;41031;44.750;11.308;2023-07-20T05:59:29;9.87;;;5.73;;
55134;SDS011;41031;44.750;11.308;2023-07-20T06:01:57;11.63;;;5.63;;
55134;SDS011;41031;44.750;11.308;2023-07-20T06:04:24;9.83;;;5.30;;
55134;SDS011;41031;44.750;11.308;2023-07-20T06:06:51;10.77;;;5.80;;
55134;SDS011;41031;44.750;11.308;2023-07-20T06:09:18;14.53;;;6.27;;
55134;SDS011;41031;44.750;11.308;2023-07-20T06:11:45;8.63;;;5.60;;
55134;SDS011;41031;44.750;11.308;2023-07-20T06:14:12;12.63;;;5.87;;
55134;SDS011;41031;44.750;11.308;2023-07-20T06:16:39;9.60;;;5.73;;
55134;SDS011;41031;44.750;11.308;2023-07-20T06:19:06;9.40;;;5.57;;
55134;SDS011;41031;44.750;11.308;2023-07-20T06:21:33;8.07;;;5.00;;
55134;SDS011;41031;44.750;11.308;2023-07-20T06:24:01;7.83;;;5.33;;
55134;SDS011;41031;44.750;11.308;2023-07-20T06:26:28;9.33;;;6.00;;
55134;SDS011;41031;44.750;11.308;2023-07-20T06:28:56;10.80;;;6.37;;
55134;SDS011;41031;44.750;11.308;2023-07-20T06:31:23;9.30;;;6.27;;
55134;SDS011;41031;44.750;11.308;2023-07-20T06:33:50;8.07;;;5.00;;
55134;SDS011;41031;44.750;11.308;2023-07-20T06:36:17;11.77;;;6.53;;
55134;SDS011;41031;44.750;11.308;2023-07-20T06:38:44;10.87;;;5.70;;
55134;SDS011;41031;44.750;11.308;2023-07-20T06:41:31;10.67;;;5.83;;
55134;SDS011;41031;44.750;11.308;2023-07-20T06:44:01;10.27;;;5.57;;
55134;SDS011;41031;44.750;11.308;2023-07-20T06:46:28;14.17;;;6.03;;
55134;SDS011;41031;44.750;11.308;2023-07-20T06:48:56;7.83;;;5.77;;
55134;SDS011;41031;44.750;11.308;2023-07-20T06:51:26;8.73;;;5.40;;
55134;SDS011;41031;44.750;11.308;2023-07-20T06:53:53;8.90;;;6.03;;
55134;SDS011;41031;44.750;11.308;2023-07-20T06:56:20;13.23;;;5.47;;
55134;SDS011;41031;44.750;11.308;2023-07-20T06:58:51;8.83;;;5.70;;
55134;SDS011;41031;44.750;11.308;2023-07-20T07:01:18;9.77;;;5.50;;
55134;SDS011;41031;44.750;11.308;2023-07-20T07:03:48;10.90;;;5.67;;
55134;SDS011;41031;44.750;11.308;2023-07-20T07:06:19;8.47;;;5.67;;
55134;SDS011;41031;44.750;11.308;2023-07-20T07:08:48;19.07;;;6.47;;
55134;SDS011;41031;44.750;11.308;2023-07-20T07:11:15;6.77;;;5.27;;
55134;SDS011;41031;44.750;11.308;2023-07-20T07:13:42;7.50;;;6.00;;
55134;SDS011;41031;44.750;11.308;2023-07-20T07:16:13;12.83;;;5.60;;
55134;SDS011;41031;44.750;11.308;2023-07-20T07:18:46;7.43;;;5.57;;
55134;SDS011;41031;44.750;11.308;2023-07-20T07:21:13;7.90;;;4.93;;
55134;SDS011;41031;44.750;11.308;2023-07-20T07:23:40;8.90;;;6.03;;
55134;SDS011;41031;44.750;11.308;2023-07-20T07:26:08;9.70;;;5.53;;
55134;SDS011;41031;44.750;11.308;2023-07-20T07:28:36;12.90;;;5.63;;
55134;SDS011;41031;44.750;11.308;2023-07-20T07:31:06;12.10;;;6.30;;
55134;SDS011;41031;44.750;11.308;2023-07-20T07:33:34;12.73;;;5.33;;
55134;SDS011;41031;44.750;11.308;2023-07-20T07:36:01;11.43;;;6.20;;
55134;SDS011;41031;44.750;11.308;2023-07-20T07:38:28;13.60;;;5.13;;
55134;SDS011;41031;44.750;11.308;2023-07-20T07:41:15;10.23;;;5.50;;
55134;SDS011;41031;44.750;11.308;2023-07-20T07:43:42;15.60;;;6.73;;
55134;SDS011;41031;44.750;11.308;2023-07-20T07:46:09;8.37;;;5.60;;
55134;SDS011;41031;44.750;11.308;2023-07-20T07:48:36;11.23;;;5.97;;
55134;SDS011;41031;44.750;11.308;2023-07-20T07:51:03;10.67;;;6.67;;
55134;SDS011;41031;44.750;11.308;2023-07-20T07:53:30;11.60;;;6.47;;
55134;SDS011;41031;44.750;11.308;2023-07-20T07:55:58;11.07;;;6.40;;
55134;SDS011;41031;44.750;11.308;2023-07-20T07:58:25;10.37;;;5.70;;
55134;SDS011;41031;44.750;11.308;2023-07-20T08:00:52;11.70;;;5.50;;
55134;SDS011;41031;44.750;11.308;2023-07-20T08:03:22;9.03;;;5.53;;
55134;SDS011;41031;44.750;11.308;2023-07-20T08:05:50;10.77;;;6.20;;
55134;SDS011;41031;44.750;11.308;2023-07-20T08:08:20;13.20;;;6.17;;
55134;SDS011;41031;44.750;11.308;2023-07-20T08:10:50;9.67;;;6.00;;
55134;SDS011;41031;44.750;11.308;2023-07-20T08:13:19;14.00;;;6.13;;
55134;SDS011;41031;44.750;11.308;2023-07-20T08:15:48;9.53;;;5.70;;
55134;SDS011;41031;44.750;11.308;2023-07-20T08:18:17;7.40;;;5.50;;
55134;SDS011;41031;44.750;11.308;2023-07-20T08:20:45;13.80;;;6.33;;
55134;SDS011;41031;44.750;11.308;2023-07-20T08:23:12;10.60;;;6.13;;
55134;SDS011;41031;44.750;11.308;2023-07-20T08:25:39;12.90;;;6.10;;
55134;SDS011;41031;44.750;11.308;2023-07-20T08:28:10;9.03;;;6.07;;
55134;SDS011;41031;44.750;11.308;2023-07-20T08:30:41;14.93;;;6.30;;
55134;SDS011;41031;44.750;11.308;2023-07-20T08:33:10;10.20;;;5.57;;
55134;SDS011;41031;44.750;11.308;2023-07-20T08:35:40;11.33;;;6.47;;
55134;SDS011;41031;44.750;11.308;2023-07-20T08:38:07;12.27;;;6.47;;
55134;SDS011;41031;44.750;11.308;2023-07-20T08:40:41;11.80;;;5.90;;
55134;SDS011;41031;44.750;11.308;2023-07-20T08:43:12;13.70;;;6.83;;
55134;SDS011;41031;44.750;11.308;2023-07-20T08:45:43;9.07;;;6.37;;
55134;SDS011;41031;44.750;11.308;2023-07-20T08:48:12;13.50;;;6.53;;
55134;SDS011;41031;44.750;11.308;2023-07-20T08:50:43;15.40;;;7.87;;
55134;SDS011;41031;44.750;11.308;2023-07-20T08:53:11;9.77;;;6.27;;
55134;SDS011;41031;44.750;11.308;2023-07-20T08:55:40;13.00;;;7.13;;
55134;SDS011;41031;44.750;11.308;2023-07-20T08:58:11;12.33;;;6.73;;
55134;SDS011;41031;44.750;11.308;2023-07-20T09:00:41;17.30;;;8.07;;
55134;SDS011;41031;44.750;11.308;2023-07-20T09:03:11;11.03;;;7.23;;
55134;SDS011;41031;44.750;11.308;2023-07-20T09:05:40;11.47;;;6.50;;
55134;SDS011;41031;44.750;11.308;2023-07-20T09:08:07;13.77;;;7.73;;
55134;SDS011;41031;44.750;11.308;2023-07-20T09:10:34;13.67;;;7.40;;
55134;SDS011;41031;44.750;11.308;2023-07-20T09:13:01;8.20;;;6.83;;
55134;SDS011;41031;44.750;11.308;2023-07-20T09:15:28;13.40;;;6.80;;
55134;SDS011;41031;44.750;11.308;2023-07-20T09:17:55;11.07;;;7.37;;
55134;SDS011;41031;44.750;11.308;2023-07-20T09:20:22;12.43;;;7.00;;
55134;SDS011;41031;44.750;11.308;2023-07-20T09:22:50;12.23;;;7.13;;
55134;SDS011;41031;44.750;11.308;2023-07-20T09:25:19;13.13;;;7.23;;
55134;SDS011;41031;44.750;11.308;2023-07-20T09:27:48;12.30;;;7.57;;
55134;SDS011;41031;44.750;11.308;2023-07-20T09:30:18;13.03;;;7.00;;
55134;SDS011;41031;44.750;11.308;2023-07-20T09:32:48;17.13;;;8.60;;
55134;SDS011;41031;44.750;11.308;2023-07-20T09:35:20;14.43;;;7.00;;
55134;SDS011;41031;44.750;11.308;2023-07-20T09:37:54;10.90;;;6.90;;
55134;SDS011;41031;44.750;11.308;2023-07-20T09:40:28;15.03;;;7.60;;
55134;SDS011;41031;44.750;11.308;2023-07-20T09:42:59;8.60;;;7.07;;
55134;SDS011;41031;44.750;11.308;2023-07-20T09:45:33;14.33;;;7.30;;
55134;SDS011;41031;44.750;11.308;2023-07-20T09:48:05;15.83;;;7.10;;
55134;SDS011;41031;44.750;11.308;2023-07-20T09:50:39;9.57;;;7.03;;
55134;SDS011;41031;44.750;11.308;2023-07-20T09:53:12;12.17;;;7.23;;
55134;SDS011;41031;44.750;11.308;2023-07-20T09:55:43;11.60;;;7.20;;
55134;SDS011;41031;44.750;11.308;2023-07-20T09:58:10;18.20;;;8.00;;
55134;SDS011;41031;44.750;11.308;2023-07-20T10:00:38;15.47;;;8.67;;
55134;SDS011;41031;44.750;11.308;2023-07-20T10:03:10;13.47;;;8.67;;
55134;SDS011;41031;44.750;11.308;2023-07-20T10:05:39;12.97;;;7.30;;
55134;SDS011;41031;44.750;11.308;2023-07-20T10:08:12;15.57;;;7.67;;
55134;SDS011;41031;44.750;11.308;2023-07-20T10:10:46;17.50;;;7.80;;
55134;SDS011;41031;44.750;11.308;2023-07-20T10:13:18;12.50;;;7.83;;
55134;SDS011;41031;44.750;11.308;2023-07-20T10:15:59;13.70;;;7.80;;
55134;SDS011;41031;44.750;11.308;2023-07-20T10:21:11;14.03;;;8.20;;
55134;SDS011;41031;44.750;11.308;2023-07-20T10:23:42;18.07;;;8.00;;
55134;SDS011;41031;44.750;11.308;2023-07-20T10:26:09;15.70;;;8.63;;
55134;SDS011;41031;44.750;11.308;2023-07-20T10:28:37;15.57;;;8.13;;
55134;SDS011;41031;44.750;11.308;2023-07-20T10:31:05;14.57;;;8.03;;
55134;SDS011;41031;44.750;11.308;2023-07-20T10:33:35;10.90;;;8.30;;
55134;SDS011;41031;44.750;11.308;2023-07-20T10:36:05;11.30;;;8.10;;
55134;SDS011;41031;44.750;11.308;2023-07-20T10:38:42;11.55;;;7.65;;
55134;SDS011;41031;44.750;11.308;2023-07-20T10:41:20;13.30;;;7.73;;
55134;SDS011;41031;44.750;11.308;2023-07-20T10:46:50;16.90;;;8.23;;
55134;SDS011;41031;44.750;11.308;2023-07-20T10:49:25;13.07;;;7.57;;
55134;SDS011;41031;44.750;11.308;2023-07-20T10:51:57;10.97;;;7.37;;
55134;SDS011;41031;44.750;11.308;2023-07-20T10:56:55;12.70;;;7.07;;
55134;SDS011;41031;44.750;11.308;2023-07-20T11:01:54;15.70;;;7.53;;
55134;SDS011;41031;44.750;11.308;2023-07-20T11:07:53;13.38;;;8.15;;
55134;SDS011;41031;44.750;11.308;2023-07-20T11:10:13;14.00;;;7.87;;
55134;SDS011;41031;44.750;11.308;2023-07-20T11:15:44;22.07;;;8.03;;
55134;SDS011;41031;44.750;11.308;2023-07-20T11:18:14;11.57;;;7.93;;
55134;SDS011;41031;44.750;11.308;2023-07-20T11:20:49;12.43;;;7.67;;
55134;SDS011;41031;44.750;11.308;2023-07-20T11:23:17;13.43;;;7.10;;
55134;SDS011;41031;44.750;11.308;2023-07-20T11:25:45;10.60;;;6.63;;
55134;SDS011;41031;44.750;11.308;2023-07-20T11:28:13;15.70;;;8.05;;
55134;SDS011;41031;44.750;11.308;2023-07-20T11:30:40;13.70;;;7.50;;
55134;SDS011;41031;44.750;11.308;2023-07-20T11:33:10;12.85;;;7.45;;
55134;SDS011;41031;44.750;11.308;2023-07-20T11:35:48;12.50;;;7.28;;
55134;SDS011;41031;44.750;11.308;2023-07-20T11:38:17;13.95;;;7.25;;
55134;SDS011;41031;44.750;11.308;2023-07-20T11:40:46;13.43;;;7.55;;
55134;SDS011;41031;44.750;11.308;2023-07-20T11:43:14;13.35;;;7.00;;
55134;SDS011;41031;44.750;11.308;2023-07-20T11:45:45;8.48;;;6.80;;
55134;SDS011;41031;44.750;11.308;2023-07-20T11:48:15;9.82;;;6.85;;
55134;SDS011;41031;44.750;11.308;2023-07-20T11:50:43;13.33;;;8.00;;
55134;SDS011;41031;44.750;11.308;2023-07-20T11:53:10;13.60;;;7.88;;
55134;SDS011;41031;44.750;11.308;2023-07-20T11:55:38;17.43;;;8.00;;
55134;SDS011;41031;44.750;11.308;2023-07-20T11:58:07;8.98;;;7.10;;
55134;SDS011;41031;44.750;11.308;2023-07-20T12:00:36;16.00;;;6.78;;
55134;SDS011;41031;44.750;11.308;2023-07-20T12:03:06;13.35;;;7.65;;
55134;SDS011;41031;44.750;11.308;2023-07-20T12:05:34;10.83;;;6.93;;
55134;SDS011;41031;44.750;11.308;2023-07-20T12:08:21;9.88;;;6.68;;
55134;SDS011;41031;44.750;11.308;2023-07-20T12:10:48;15.47;;;7.07;;
55134;SDS011;41031;44.750;11.308;2023-07-20T12:13:16;11.55;;;7.65;;
55134;SDS011;41031;44.750;11.308;2023-07-20T12:15:43;11.38;;;6.85;;
55134;SDS011;41031;44.750;11.308;2023-07-20T12:18:10;21.30;;;6.97;;
55134;SDS011;41031;44.750;11.308;2023-07-20T12:20:37;9.63;;;7.20;;
55134;SDS011;41031;44.750;11.308;2023-07-20T12:23:09;12.18;;;6.95;;
55134;SDS011;41031;44.750;11.308;2023-07-20T12:25:39;10.65;;;7.22;;
55134;SDS011;41031;44.750;11.308;2023-07-20T12:28:12;11.70;;;6.93;;
55134;SDS011;41031;44.750;11.308;2023-07-20T12:30:44;12.53;;;7.23;;
55134;SDS011;41031;44.750;11.308;2023-07-20T12:33:12;11.83;;;7.30;;
55134;SDS011;41031;44.750;11.308;2023-07-20T12:35:42;8.77;;;6.47;;
55134;SDS011;41031;44.750;11.308;2023-07-20T12:38:12;13.83;;;6.73;;
55134;SDS011;41031;44.750;11.308;2023-07-20T12:40:39;15.57;;;7.05;;
55134;SDS011;41031;44.750;11.308;2023-07-20T12:43:07;12.65;;;7.25;;
55134;SDS011;41031;44.750;11.308;2023-07-20T12:45:34;9.90;;;6.33;;
55134;SDS011;41031;44.750;11.308;2023-07-20T12:48:02;10.43;;;6.87;;
55134;SDS011;41031;44.750;11.308;2023-07-20T12:50:29;10.10;;;6.80;;
55134;SDS011;41031;44.750;11.308;2023-07-20T12:52:56;9.90;;;6.73;;
55134;SDS011;41031;44.750;11.308;2023-07-20T12:55:23;11.97;;;7.10;;
55134;SDS011;41031;44.750;11.308;2023-07-20T12:57:50;9.40;;;6.77;;
55134;SDS011;41031;44.750;11.308;2023-07-20T13:00:17;13.45;;;6.78;;
55134;SDS011;41031;44.750;11.308;2023-07-20T13:02:44;9.17;;;6.10;;
55134;SDS011;41031;44.750;11.308;2023-07-20T13:05:12;10.60;;;6.00;;
55134;SDS011;41031;44.750;11.308;2023-07-20T13:07:40;14.10;;;7.30;;
55134;SDS011;41031;44.750;11.308;2023-07-20T13:10:11;12.00;;;6.57;;
55134;SDS011;41031;44.750;11.308;2023-07-20T13:12:38;12.07;;;7.00;;
55134;SDS011;41031;44.750;11.308;2023-07-20T13:15:06;11.30;;;7.17;;
55134;SDS011;41031;44.750;11.308;2023-07-20T13:17:34;11.77;;;7.13;;
55134;SDS011;41031;44.750;11.308;2023-07-20T13:20:03;14.53;;;7.00;;
55134;SDS011;41031;44.750;11.308;2023-07-20T13:22:32;9.23;;;5.55;;
55134;SDS011;41031;44.750;11.308;2023-07-20T13:25:00;15.87;;;6.37;;
55134;SDS011;41031;44.750;11.308;2023-07-20T13:27:28;9.13;;;6.57;;
55134;SDS011;41031;44.750;11.308;2023-07-20T13:29:55;10.23;;;6.63;;
55134;SDS011;41031;44.750;11.308;2023-07-20T13:32:23;14.13;;;6.82;;
55134;SDS011;41031;44.750;11.308;2023-07-20T13:34:50;12.87;;;6.83;;
55134;SDS011;41031;44.750;11.308;2023-07-20T13:37:18;8.93;;;6.40;;
55134;SDS011;41031;44.750;11.308;2023-07-20T13:39:47;14.77;;;8.30;;
55134;SDS011;41031;44.750;11.308;2023-07-20T13:42:15;11.20;;;6.97;;
55134;SDS011;41031;44.750;11.308;2023-07-20T13:44:44;13.73;;;7.50;;
55134;SDS011;41031;44.750;11.308;2023-07-20T13:47:12;12.10;;;7.40;;
55134;SDS011;41031;44.750;11.308;2023-07-20T13:49:43;11.73;;;7.03;;
55134;SDS011;41031;44.750;11.308;2023-07-20T13:52:13;12.25;;;7.03;;
55134;SDS011;41031;44.750;11.308;2023-07-20T13:54:43;13.43;;;6.77;;
55134;SDS011;41031;44.750;11.308;2023-07-20T13:57:17;10.90;;;6.23;;
55134;SDS011;41031;44.750;11.308;2023-07-20T13:59:44;10.27;;;6.33;;
55134;SDS011;41031;44.750;11.308;2023-07-20T14:02:13;13.50;;;6.73;;
55134;SDS011;41031;44.750;11.308;2023-07-20T14:04:44;12.13;;;6.80;;
55134;SDS011;41031;44.750;11.308;2023-07-20T14:07:11;14.77;;;5.80;;
55134;SDS011;41031;44.750;11.308;2023-07-20T14:09:41;13.57;;;6.37;;
55134;SDS011;41031;44.750;11.308;2023-07-20T14:12:11;8.03;;;5.90;;
55134;SDS011;41031;44.750;11.308;2023-07-20T14:14:43;14.90;;;6.90;;
55134;SDS011;41031;44.750;11.308;2023-07-20T14:17:10;10.47;;;5.80;;
55134;SDS011;41031;44.750;11.308;2023-07-20T14:19:37;12.03;;;6.83;;
55134;SDS011;41031;44.750;11.308;2023-07-20T14:22:05;11.53;;;6.17;;
55134;SDS011;41031;44.750;11.308;2023-07-20T14:24:32;8.97;;;5.60;;
55134;SDS011;41031;44.750;11.308;2023-07-20T14:27:01;10.50;;;6.77;;
55134;SDS011;41031;44.750;11.308;2023-07-20T14:29:28;10.73;;;6.00;;
55134;SDS011;41031;44.750;11.308;2023-07-20T14:31:58;10.97;;;6.40;;
55134;SDS011;41031;44.750;11.308;2023-07-20T14:34:25;13.27;;;5.90;;
55134;SDS011;41031;44.750;11.308;2023-07-20T14:36:52;10.27;;;6.67;;
55134;SDS011;41031;44.750;11.308;2023-07-20T14:39:20;12.40;;;6.20;;
55134;SDS011;41031;44.750;11.308;2023-07-20T14:41:48;12.73;;;6.67;;
55134;SDS011;41031;44.750;11.308;2023-07-20T14:44:16;12.10;;;5.53;;
55134;SDS011;41031;44.750;11.308;2023-07-20T14:46:43;8.63;;;6.07;;
55134;SDS011;41031;44.750;11.308;2023-07-20T14:49:26;12.63;;;6.27;;
55134;SDS011;41031;44.750;11.308;2023-07-20T14:51:53;12.57;;;6.57;;
55134;SDS011;41031;44.750;11.308;2023-07-20T14:54:24;11.20;;;6.17;;
55134;SDS011;41031;44.750;11.308;2023-07-20T14:56:52;7.97;;;5.90;;
55134;SDS011;41031;44.750;11.308;2023-07-20T14:59:19;10.17;;;6.60;;
55134;SDS011;41031;44.750;11.308;2023-07-20T15:01:46;9.87;;;6.30;;
55134;SDS011;41031;44.750;11.308;2023-07-20T15:04:13;13.10;;;5.90;;